Devers, Texas
Current Conditions -  °F | °C
As of 10:55 AM on Wednesday 22 Oct 2014 (Local Time) from KBMT Reporting Station
Clear Clear  
Wind Chill: 24°   Ceiling: Unl
Heat Index: 24°   Visibility: 10mi
Dew Point: 16°   Wind: 6mph
Humidity: 61%   Direction: 70°ENE
Pressure: 30.12"   Gusts: NA
Location:  30.03°N, 94.59°W
Report Text: KBMT 221555Z AUTO 07005KT 10SM CLR 24/16 A3012 RMK AO2 T02350157
Loading
Personal Weather Stations






























Interactive Weather Map
Tropical Storm Tracking
New forecast layout! Learn more

10-Day Weather Forecast

Advertisements
Track Severe Weather on mobile